Colorado Star — 9HA2189 — position and weather

sailwx.info

Track history (hours):
 
Tides and Currents Weather Stations Pressure Air Temp Water Temp Dewpoint Dewpoint Depression Visibility Wind Speed Wind Dir Waves Ship Positions

Colorado Star

Last reported at 2016-Aug-28 21:32 UTC. Time now 2016-Aug-28 22:24 UTC.
Position N 51°15' E 004°22'.

Length 128 m; draft 8.2 m.

Type: Ship. MMSI: 248127000.

Date/timePositionNaut miles runAvg speedWind from/ knotsBaromVisibWave heightAir tempDewpointWater temp
2016-Aug-28 21:32N 51°15' E 004°22'0 0.0
2016-Aug-28 20:32N 51°15' E 004°22'0 0.0
2016-Aug-28 19:32N 51°15' E 004°22'0 0.0
2016-Aug-28 18:32N 51°15' E 004°22'0 0.0
2016-Aug-28 17:32N 51°15' E 004°22'0 0.0
2016-Aug-28 16:32N 51°15' E 004°22'0 0.0
2016-Aug-28 15:32N 51°15' E 004°22'0 0.0
2016-Aug-28 14:32N 51°15' E 004°22'0 0.0
2016-Aug-28 13:32N 51°15' E 004°22'0 0.0
2016-Aug-28 12:32N 51°15' E 004°22'0 0.0
2016-Aug-28 11:32N 51°15' E 004°22'0 0.0
2016-Aug-28 10:32N 51°15' E 004°22'0 0.0
2016-Aug-28 09:32N 51°15' E 004°22'0 0.0
2016-Aug-27 23:24N 51°15' E 004°22'1 1.0
2016-Aug-27 22:33N 51°16' E 004°21'6 5.6
2016-Aug-27 21:33N 51°21' E 004°17'0 0.2
2016-Aug-27 20:33N 51°21' E 004°17'8 7.9
2016-Aug-27 19:33N 51°22' E 004°04'9 9.4
2016-Aug-27 18:33N 51°21' E 003°49'1111.0
2016-Aug-27 17:33N 51°25' E 003°34'1313.0
2016-Aug-27 16:34N 51°24' E 003°13'8 8.1
2016-Aug-27 15:33N 51°30' E 003°03'1414.0
2016-Aug-27 14:33N 51°42' E 003°13'10 9.8
2016-Aug-27 13:33N 51°52' E 003°15'2711.7
2016-Aug-27 11:17N 52°18' E 003°25'912.0
2016-Aug-27 10:33N 52°26' E 003°27'1211.7
2016-Aug-27 09:33N 52°38' E 003°31'1211.9
2016-Aug-27 08:33N 52°47' E 003°44'1212.0
2016-Aug-27 07:33N 52°56' E 003°57'1312.6
2016-Aug-27 06:33N 53°04' E 004°12'2512.4
2016-Aug-27 04:33N 53°26' E 004°33'1212.4
2016-Aug-27 03:33N 53°37' E 004°40'1212.1
2016-Aug-27 02:33N 53°49' E 004°48'1212.0
2016-Aug-27 01:33N 53°60' E 004°56'1212.0
2016-Aug-27 00:34N 54°11' E 005°03'1211.9
2016-Aug-26 23:33N 54°22' E 005°11'1212.1
2016-Aug-26 22:33N 54°33' E 005°19'25911.8
2016-Aug-26 00:34N 57°54' E 010°14'1212.1
2016-Aug-25 23:34N 58°01' E 010°33'1212.3
2016-Aug-25 22:33N 58°08' E 010°52'1212.2
2016-Aug-25 21:33N 58°15' E 011°11'1010.2
2016-Aug-25 20:33N 58°21' E 011°25'0 0.0
2016-Aug-24 11:08N 58°21' E 011°26'0 0.7
2016-Aug-24 10:30N 58°21' E 011°25'9 9.9
2016-Aug-24 09:33N 58°15' E 011°13'3 1.7
2016-Aug-24 07:29N 58°11' E 011°12'0 0.0
2016-Aug-24 02:29N 58°11' E 011°12'0 0.0
2016-Aug-24 01:29N 58°11' E 011°12'0 0.0
2016-Aug-24 00:23N 58°11' E 011°12'0 0.0
2016-Aug-23 17:32N 58°11' E 011°12'0 0.0
2016-Aug-23 10:17N 58°11' E 011°12'0 0.0
2016-Aug-23 09:05N 58°11' E 011°12'0 0.0
2016-Aug-23 08:32N 58°11' E 011°12'0 0.0
2016-Aug-23 07:17N 58°11' E 011°12'0 0.0
2016-Aug-23 06:23N 58°11' E 011°12'0 0.0
2016-Aug-23 04:32N 58°11' E 011°12'0 0.0
2016-Aug-23 03:20N 58°11' E 011°12'0 0.0
2016-Aug-23 02:29N 58°11' E 011°12'0 0.0
2016-Aug-23 01:32N 58°11' E 011°12'0 0.0
2016-Aug-23 00:20N 58°11' E 011°12'0 0.0
2016-Aug-22 23:20N 58°11' E 011°12'0 0.0
2016-Aug-22 22:32N 58°11' E 011°12'0 0.0
2016-Aug-22 17:08N 58°11' E 011°12'0 0.0
2016-Aug-22 16:11N 58°11' E 011°12'0 0.0
2016-Aug-22 15:29N 58°11' E 011°12'0 0.0
2016-Aug-22 14:20N 58°11' E 011°12'0 0.0
2016-Aug-22 13:23N 58°11' E 011°12'0 0.0
2016-Aug-22 09:17N 58°11' E 011°12'0 0.0
2016-Aug-22 08:17N 58°11' E 011°12'0 0.0
2016-Aug-22 07:05N 58°11' E 011°12'0 0.0
2016-Aug-22 06:32N 58°11' E 011°12'0 0.0
2016-Aug-22 04:20N 58°11' E 011°12'0 0.0
2016-Aug-22 01:26N 58°11' E 011°12'0 0.0
2016-Aug-21 23:26N 58°11' E 011°12'1 1.0
2016-Aug-21 22:33N 58°10' E 011°12'1111.0
2016-Aug-21 21:33N 57°59' E 011°15'1414.4
2016-Aug-21 20:33N 57°46' E 011°23'1313.4
2016-Aug-21 19:33N 57°34' E 011°36'1 0.9
2016-Aug-21 18:32N 57°34' E 011°38'0 0.0
2016-Aug-21 17:32N 57°34' E 011°38'0 0.0
2016-Aug-21 16:32N 57°34' E 011°38'0 0.0
2016-Aug-21 15:32N 57°34' E 011°38'0 0.0
2016-Aug-21 14:20N 57°34' E 011°38'0 0.0
2016-Aug-21 13:29N 57°34' E 011°38'0 0.0
2016-Aug-21 12:32N 57°34' E 011°38'0 0.0
2016-Aug-21 11:32N 57°34' E 011°38'0 0.0
2016-Aug-21 10:32N 57°34' E 011°38'0 0.0
2016-Aug-21 09:32N 57°34' E 011°38'0 0.0
2016-Aug-21 08:32N 57°34' E 011°38'0 0.0
2016-Aug-21 07:32N 57°34' E 011°38'0 0.0
2016-Aug-21 06:32N 57°34' E 011°38'0 0.0
2016-Aug-21 05:32N 57°34' E 011°38'0 0.0
2016-Aug-21 04:32N 57°34' E 011°38'0 0.0
2016-Aug-21 03:32N 57°34' E 011°38'0 0.0
2016-Aug-21 02:32N 57°34' E 011°38'0 0.0
2016-Aug-21 01:32N 57°34' E 011°38'0 0.0
2016-Aug-21 00:32N 57°34' E 011°38'0 0.0
2016-Aug-20 23:32N 57°34' E 011°38'0 0.0
2016-Aug-20 22:32N 57°34' E 011°38'0 0.0
2016-Aug-20 21:32N 57°34' E 011°38'0 0.0
2016-Aug-20 20:32N 57°34' E 011°38'0 0.0
2016-Aug-20 19:32N 57°34' E 011°38'0 0.0
2016-Aug-20 18:23N 57°34' E 011°38'0 0.0
2016-Aug-20 17:29N 57°34' E 011°38'0 0.0
2016-Aug-20 16:32N 57°34' E 011°38'0 0.0
2016-Aug-20 15:32N 57°34' E 011°38'0 0.0
2016-Aug-20 14:32N 57°34' E 011°38'0 0.0
2016-Aug-20 13:32N 57°34' E 011°38'0 0.0
2016-Aug-20 12:32N 57°34' E 011°38'0 0.0
2016-Aug-20 11:32N 57°34' E 011°38'0 0.0
2016-Aug-20 10:32N 57°34' E 011°38'0 0.0
2016-Aug-20 09:32N 57°34' E 011°38'0 0.0
2016-Aug-20 08:32N 57°34' E 011°38'0 0.0
2016-Aug-20 07:32N 57°34' E 011°38'0 0.0
2016-Aug-20 06:29N 57°34' E 011°38'0 0.0
2016-Aug-20 05:32N 57°34' E 011°38'0 0.0
2016-Aug-20 04:32N 57°34' E 011°38'0 0.0
2016-Aug-20 03:32N 57°34' E 011°38'0 0.0
2016-Aug-20 02:32N 57°34' E 011°38'0 0.0
2016-Aug-20 01:32N 57°34' E 011°38'0 0.0
2016-Aug-20 00:32N 57°34' E 011°38'0 0.0
2016-Aug-19 23:32N 57°34' E 011°38'0 0.0
2016-Aug-19 22:32N 57°34' E 011°38'0 0.0
2016-Aug-19 21:32N 57°34' E 011°38'0 0.0
2016-Aug-19 20:32N 57°34' E 011°38'0 0.0
2016-Aug-19 19:32N 57°34' E 011°38'0 0.0
2016-Aug-19 18:29N 57°34' E 011°38'0 0.0
2016-Aug-19 17:32N 57°34' E 011°38'0 0.0
2016-Aug-19 16:32N 57°34' E 011°38'0 0.0
2016-Aug-19 15:32N 57°34' E 011°38'0 0.0
2016-Aug-19 14:29N 57°34' E 011°38'0 0.0
2016-Aug-19 13:32N 57°34' E 011°38'0 0.0
2016-Aug-19 12:32N 57°34' E 011°38'0 0.0
2016-Aug-19 11:29N 57°34' E 011°38'0 0.0
2016-Aug-19 10:32N 57°34' E 011°38'0 0.0
2016-Aug-19 09:32N 57°34' E 011°38'0 0.0
2016-Aug-19 08:32N 57°34' E 011°38'0 0.0
2016-Aug-19 07:32N 57°34' E 011°38'0 0.1
2016-Aug-19 06:32N 57°34' E 011°38'0 0.0
2016-Aug-19 05:32N 57°34' E 011°38'0 0.0
2016-Aug-19 04:32N 57°34' E 011°38'0 0.0
2016-Aug-19 03:32N 57°34' E 011°38'0 0.0
2016-Aug-19 02:32N 57°34' E 011°38'0 0.0
2016-Aug-19 01:32N 57°34' E 011°38'0 0.0
2016-Aug-19 00:32N 57°34' E 011°38'0 0.0
2016-Aug-18 23:32N 57°34' E 011°38'0 0.0
2016-Aug-18 22:32N 57°34' E 011°38'  
Track history (hours):
 
Tides and Currents Weather Stations Pressure Air Temp Water Temp Dewpoint Dewpoint Depression Visibility Wind Speed Wind Dir Waves Ship Positions

Colorado Star

Last reported at 2016-Aug-28 21:32 UTC. Time now 2016-Aug-28 22:24 UTC.
Position N 51°15' E 004°22'.

Length 128 m; draft 8.2 m.

Type: Ship. MMSI: 248127000.

Date/timePositionNaut miles runAvg speedWind from/ knotsBaromVisibWave heightAir tempDewpointWater temp
2016-Aug-28 21:32N 51°15' E 004°22'0 0.0
2016-Aug-28 20:32N 51°15' E 004°22'0 0.0
2016-Aug-28 19:32N 51°15' E 004°22'0 0.0
2016-Aug-28 18:32N 51°15' E 004°22'0 0.0
2016-Aug-28 17:32N 51°15' E 004°22'0 0.0
2016-Aug-28 16:32N 51°15' E 004°22'0 0.0
2016-Aug-28 15:32N 51°15' E 004°22'0 0.0
2016-Aug-28 14:32N 51°15' E 004°22'0 0.0
2016-Aug-28 13:32N 51°15' E 004°22'0 0.0
2016-Aug-28 12:32N 51°15' E 004°22'0 0.0
2016-Aug-28 11:32N 51°15' E 004°22'0 0.0
2016-Aug-28 10:32N 51°15' E 004°22'0 0.0
2016-Aug-28 09:32N 51°15' E 004°22'0 0.0
2016-Aug-27 23:24N 51°15' E 004°22'1 1.0
2016-Aug-27 22:33N 51°16' E 004°21'6 5.6
2016-Aug-27 21:33N 51°21' E 004°17'0 0.2
2016-Aug-27 20:33N 51°21' E 004°17'8 7.9
2016-Aug-27 19:33N 51°22' E 004°04'9 9.4
2016-Aug-27 18:33N 51°21' E 003°49'1111.0
2016-Aug-27 17:33N 51°25' E 003°34'1313.0
2016-Aug-27 16:34N 51°24' E 003°13'8 8.1
2016-Aug-27 15:33N 51°30' E 003°03'1414.0
2016-Aug-27 14:33N 51°42' E 003°13'10 9.8
2016-Aug-27 13:33N 51°52' E 003°15'2711.7
2016-Aug-27 11:17N 52°18' E 003°25'912.0
2016-Aug-27 10:33N 52°26' E 003°27'1211.7
2016-Aug-27 09:33N 52°38' E 003°31'1211.9
2016-Aug-27 08:33N 52°47' E 003°44'1212.0
2016-Aug-27 07:33N 52°56' E 003°57'1312.6
2016-Aug-27 06:33N 53°04' E 004°12'2512.4
2016-Aug-27 04:33N 53°26' E 004°33'1212.4
2016-Aug-27 03:33N 53°37' E 004°40'1212.1
2016-Aug-27 02:33N 53°49' E 004°48'1212.0
2016-Aug-27 01:33N 53°60' E 004°56'1212.0
2016-Aug-27 00:34N 54°11' E 005°03'1211.9
2016-Aug-26 23:33N 54°22' E 005°11'1212.1
2016-Aug-26 22:33N 54°33' E 005°19'25911.8
2016-Aug-26 00:34N 57°54' E 010°14'1212.1
2016-Aug-25 23:34N 58°01' E 010°33'1212.3
2016-Aug-25 22:33N 58°08' E 010°52'1212.2
2016-Aug-25 21:33N 58°15' E 011°11'1010.2
2016-Aug-25 20:33N 58°21' E 011°25'0 0.0
2016-Aug-24 11:08N 58°21' E 011°26'0 0.7
2016-Aug-24 10:30N 58°21' E 011°25'9 9.9
2016-Aug-24 09:33N 58°15' E 011°13'3 1.7
2016-Aug-24 07:29N 58°11' E 011°12'0 0.0
2016-Aug-24 02:29N 58°11' E 011°12'0 0.0
2016-Aug-24 01:29N 58°11' E 011°12'0 0.0
2016-Aug-24 00:23N 58°11' E 011°12'0 0.0
2016-Aug-23 17:32N 58°11' E 011°12'0 0.0
2016-Aug-23 10:17N 58°11' E 011°12'0 0.0
2016-Aug-23 09:05N 58°11' E 011°12'0 0.0
2016-Aug-23 08:32N 58°11' E 011°12'0 0.0
2016-Aug-23 07:17N 58°11' E 011°12'0 0.0
2016-Aug-23 06:23N 58°11' E 011°12'0 0.0
2016-Aug-23 04:32N 58°11' E 011°12'0 0.0
2016-Aug-23 03:20N 58°11' E 011°12'0 0.0
2016-Aug-23 02:29N 58°11' E 011°12'0 0.0
2016-Aug-23 01:32N 58°11' E 011°12'0 0.0
2016-Aug-23 00:20N 58°11' E 011°12'0 0.0
2016-Aug-22 23:20N 58°11' E 011°12'0 0.0
2016-Aug-22 22:32N 58°11' E 011°12'0 0.0
2016-Aug-22 17:08N 58°11' E 011°12'0 0.0
2016-Aug-22 16:11N 58°11' E 011°12'0 0.0
2016-Aug-22 15:29N 58°11' E 011°12'0 0.0
2016-Aug-22 14:20N 58°11' E 011°12'0 0.0
2016-Aug-22 13:23N 58°11' E 011°12'0 0.0
2016-Aug-22 09:17N 58°11' E 011°12'0 0.0
2016-Aug-22 08:17N 58°11' E 011°12'0 0.0
2016-Aug-22 07:05N 58°11' E 011°12'0 0.0
2016-Aug-22 06:32N 58°11' E 011°12'0 0.0
2016-Aug-22 04:20N 58°11' E 011°12'0 0.0
2016-Aug-22 01:26N 58°11' E 011°12'0 0.0
2016-Aug-21 23:26N 58°11' E 011°12'1 1.0
2016-Aug-21 22:33N 58°10' E 011°12'1111.0
2016-Aug-21 21:33N 57°59' E 011°15'1414.4
2016-Aug-21 20:33N 57°46' E 011°23'1313.4
2016-Aug-21 19:33N 57°34' E 011°36'1 0.9
2016-Aug-21 18:32N 57°34' E 011°38'0 0.0
2016-Aug-21 17:32N 57°34' E 011°38'0 0.0
2016-Aug-21 16:32N 57°34' E 011°38'0 0.0
2016-Aug-21 15:32N 57°34' E 011°38'0 0.0
2016-Aug-21 14:20N 57°34' E 011°38'0 0.0
2016-Aug-21 13:29N 57°34' E 011°38'0 0.0
2016-Aug-21 12:32N 57°34' E 011°38'0 0.0
2016-Aug-21 11:32N 57°34' E 011°38'0 0.0
2016-Aug-21 10:32N 57°34' E 011°38'0 0.0
2016-Aug-21 09:32N 57°34' E 011°38'0 0.0
2016-Aug-21 08:32N 57°34' E 011°38'0 0.0
2016-Aug-21 07:32N 57°34' E 011°38'0 0.0
2016-Aug-21 06:32N 57°34' E 011°38'0 0.0
2016-Aug-21 05:32N 57°34' E 011°38'0 0.0
2016-Aug-21 04:32N 57°34' E 011°38'0 0.0
2016-Aug-21 03:32N 57°34' E 011°38'0 0.0
2016-Aug-21 02:32N 57°34' E 011°38'0 0.0
2016-Aug-21 01:32N 57°34' E 011°38'0 0.0
2016-Aug-21 00:32N 57°34' E 011°38'0 0.0
2016-Aug-20 23:32N 57°34' E 011°38'0 0.0
2016-Aug-20 22:32N 57°34' E 011°38'0 0.0
2016-Aug-20 21:32N 57°34' E 011°38'0 0.0
2016-Aug-20 20:32N 57°34' E 011°38'0 0.0
2016-Aug-20 19:32N 57°34' E 011°38'0 0.0
2016-Aug-20 18:23N 57°34' E 011°38'0 0.0
2016-Aug-20 17:29N 57°34' E 011°38'0 0.0
2016-Aug-20 16:32N 57°34' E 011°38'0 0.0
2016-Aug-20 15:32N 57°34' E 011°38'0 0.0
2016-Aug-20 14:32N 57°34' E 011°38'0 0.0
2016-Aug-20 13:32N 57°34' E 011°38'0 0.0
2016-Aug-20 12:32N 57°34' E 011°38'0 0.0
2016-Aug-20 11:32N 57°34' E 011°38'0 0.0
2016-Aug-20 10:32N 57°34' E 011°38'0 0.0
2016-Aug-20 09:32N 57°34' E 011°38'0 0.0
2016-Aug-20 08:32N 57°34' E 011°38'0 0.0
2016-Aug-20 07:32N 57°34' E 011°38'0 0.0
2016-Aug-20 06:29N 57°34' E 011°38'0 0.0
2016-Aug-20 05:32N 57°34' E 011°38'0 0.0
2016-Aug-20 04:32N 57°34' E 011°38'0 0.0
2016-Aug-20 03:32N 57°34' E 011°38'0 0.0
2016-Aug-20 02:32N 57°34' E 011°38'0 0.0
2016-Aug-20 01:32N 57°34' E 011°38'0 0.0
2016-Aug-20 00:32N 57°34' E 011°38'0 0.0
2016-Aug-19 23:32N 57°34' E 011°38'0 0.0
2016-Aug-19 22:32N 57°34' E 011°38'0 0.0
2016-Aug-19 21:32N 57°34' E 011°38'0 0.0
2016-Aug-19 20:32N 57°34' E 011°38'0 0.0
2016-Aug-19 19:32N 57°34' E 011°38'0 0.0
2016-Aug-19 18:29N 57°34' E 011°38'0 0.0
2016-Aug-19 17:32N 57°34' E 011°38'0 0.0
2016-Aug-19 16:32N 57°34' E 011°38'0 0.0
2016-Aug-19 15:32N 57°34' E 011°38'0 0.0
2016-Aug-19 14:29N 57°34' E 011°38'0 0.0
2016-Aug-19 13:32N 57°34' E 011°38'0 0.0
2016-Aug-19 12:32N 57°34' E 011°38'0 0.0
2016-Aug-19 11:29N 57°34' E 011°38'0 0.0
2016-Aug-19 10:32N 57°34' E 011°38'0 0.0
2016-Aug-19 09:32N 57°34' E 011°38'0 0.0
2016-Aug-19 08:32N 57°34' E 011°38'0 0.0
2016-Aug-19 07:32N 57°34' E 011°38'0 0.1
2016-Aug-19 06:32N 57°34' E 011°38'0 0.0
2016-Aug-19 05:32N 57°34' E 011°38'0 0.0
2016-Aug-19 04:32N 57°34' E 011°38'0 0.0
2016-Aug-19 03:32N 57°34' E 011°38'0 0.0
2016-Aug-19 02:32N 57°34' E 011°38'0 0.0
2016-Aug-19 01:32N 57°34' E 011°38'0 0.0
2016-Aug-19 00:32N 57°34' E 011°38'0 0.0
2016-Aug-18 23:32N 57°34' E 011°38'0 0.0
2016-Aug-18 22:32N 57°34' E 011°38'  

Dump ship's entire track history